Terminal Aerodrome Forecast
Issued by NWS Sioux Falls, SD

Home | Current Version | Previous Version | Graphics & Text | Print | Product List | Glossary On
Versions: 1 2 3 4 5 6 7 8 9 10 11 12 13 14 15 16 17 18 19
000
FTUS43 KFSD 202300
TAFHON
TAF
KHON 202339Z 2100/2124 17010KT P6SM SKC
     FM210200 15007KT P6SM SKC
     FM211000 14005KT 4SM BR SCT004 BKN008
     FM211400 15007KT P6SM SCT008
     FM211800 17010KT P6SM BKN200=

USA.gov is the U.S. government's official web portal to all federal, state and local government web resources and services.